WETTERDATEN

GESTERN
Time Temp. Taup. r.Fe. Windrich Windstärke Windböe Druck 1h Prec. 24h Prec.
00:04 22.6 13.9 58 339 0.8 3.1 1011.4 0.0000 0.0000
00:13 22.5 13.8 58 336 0.6 2.2 1011.5 0.0000 0.0000
00:23 22.4 14 59 337 0.6 1.9 1011.5 0.0000 0.0000
00:34 22.3 13.9 59 334 0.6 1.4 1011.5 0.0000 0.0000
00:44 22.3 13.9 59 331 0.6 1.4 1011.5 0.0000 0.0000
00:54 22.2 13.8 59 333 0.6 1.4 1011.5 0.0000 0.0000
01:04 22.2 13.8 59 332 0.3 1.1 1011.3 0.0000 0.0000
01:14 22.2 13.8 59 0 0.6 1011.3 0.0000 0.0000
01:24 22.3 13.6 58 270 0.3 0.6 1011.4 0.0000 0.0000
01:34 22.3 13.4 57 326 0.3 1.4 1011.3 0.0000 0.0000
01:45 22.2 13.6 58 337 0.6 1.4 1011.3 0.0000 0.0000
01:54 22.1 13.5 58 315 0.3 1.1 1011.3 0.0000 0.0000
02:04 22.1 13.5 58 270 0.3 0.6 1011.2 0.0000 0.0000
02:15 22 13.1 57 315 0.3 0.8 1011.1 0.0000 0.0000
02:25 22 13.1 57 270 0.3 0.6 1011.1 0.0000 0.0000
02:44 22 12.8 56 0 0.6 1011 0.0000 0.0000
02:55 22 12.8 56 0 0.6 1011.1 0.0000 0.0000
03:05 21.9 12.7 56 323 0.3 1.4 1011.3 0.0000 0.0000
03:15 21.7 12.5 56 323 0.3 1.1 1011.3 0.0000 0.0000
03:25 21.7 12.5 56 315 0.3 0.8 1011.3 0.0000 0.0000
03:35 21.7 12.5 56 225 0.3 0.8 1011.2 0.0000 0.0000
03:45 21.7 12.5 56 0 0.6 1011.3 0.0000 0.0000
03:55 21.7 12.5 56 0 0.3 1011.2 0.0000 0.0000
04:06 21.7 12.5 56 0 0.6 1011.2 0.0000 0.0000
04:16 21.6 12.5 56 0 0.3 1011.2 0.0000 0.0000
04:25 21.6 12.5 56 0 0.3 1011.2 0.0000 0.0000
04:35 21.6 12.7 57 0 0.6 1011.3 0.0000 0.0000
04:46 21.6 12.7 57 0 0.6 1011.2 0.0000 0.0000
04:56 21.5 12.6 57 315 0.3 0.8 1011.3 0.0000 0.0000
05:05 21.4 12.5 57 270 0.3 0.8 1011.2 0.0000 0.0000
05:16 21.4 12.5 57 0 0.6 1011.2 0.0000 0.0000
05:26 21.4 12.8 58 0 0.3 1011.3 0.0000 0.0000
05:36 21.3 12.7 58 0 0.6 1011.3 0.0000 0.0000
05:46 21.3 12.7 58 0 0.3 1011.5 0.0000 0.0000
05:57 21.3 12.7 58 0 0.3 1011.6 0.0000 0.0000
06:06 21.2 12.6 58 0 0.3 1011.7 0.0000 0.0000
06:16 21.2 12.6 58 0 0.6 1011.8 0.0000 0.0000
06:27 21 12.7 59 336 0.3 0.8 1012 0.0000 0.0000
06:37 20.9 12.6 59 333 0.6 1.4 1012 0.0000 0.0000
06:47 20.7 12.7 60 336 0.3 0.8 1012.1 0.0000 0.0000
06:56 20.8 12.8 60 319 0.3 0.8 1012.2 0.0000 0.0000
07:07 20.8 12.8 60 336 0.3 0.8 1012.2 0.0000 0.0000
07:17 20.8 12.8 60 329 0.6 1.1 1012.3 0.0000 0.0000
07:27 20.8 12.8 60 335 0.6 1.7 1012.4 0.0000 0.0000
07:38 20.7 12.9 61 338 0.6 1.1 1012.4 0.0000 0.0000
07:47 20.8 13 61 332 0.6 1.4 1012.5 0.0000 0.0000
07:57 20.8 13.3 62 341 0.6 1.7 1012.5 0.0000 0.0000
08:07 21 13.4 62 333 0.3 1.1 1012.6 0.0000 0.0000
08:18 21.2 13.4 61 330 0.3 0.8 1012.7 0.0000 0.0000
08:27 21.6 13.8 61 324 0.3 0.8 1012.7 0.0000 0.0000
08:37 21.9 13.8 60 0 0.6 1012.8 0.0000 0.0000
08:48 22.3 13.9 59 0 0.3 1012.8 0.0000 0.0000
08:58 22.6 13.9 58 0 0.6 1012.8 0.0000 0.0000
09:08 23 14 57 0 0.6 1012.9 0.0000 0.0000
09:17 23.3 14.3 57 0 0.3 1012.8 0.0000 0.0000
09:28 23.6 14.3 56 0 0.6 1012.8 0.0000 0.0000
09:38 23.8 14.5 56 0 0.6 1012.8 0.0000 0.0000
09:48 24.5 14.9 55 216 0.3 0.6 1012.9 0.0000 0.0000
09:58 25.4 14.8 52 225 0.3 0.6 1013 0.0000 0.0000
10:08 25.6 14.4 50 270 0.3 0.6 1013 0.0000 0.0000
10:18 25.5 14.6 51 171 0.3 1.1 1013 0.0000 0.0000
10:28 25.5 14 49 0 0.6 1013.1 0.0000 0.0000
10:39 25.4 14.2 50 167 0.3 1.1 1013.1 0.0000 0.0000
10:49 25.5 14.9 52 161 0.6 1.7 1013.2 0.0000 0.0000
10:58 25.7 15.1 52 167 0.8 1.9 1013.1 0.0000 0.0000
11:09 26 15.1 51 161 0.6 1.9 1013 0.0000 0.0000
11:19 26.2 15 50 170 0.8 2.5 1013.1 0.0000 0.0000
11:29 26.2 15.6 52 164 1.1 2.8 1013.2 0.0000 0.0000
11:39 26.1 15.8 53 163 1.1 2.8 1013.2 0.0000 0.0000
11:49 26.1 16.1 54 167 0.8 2.5 1013.3 0.0000 0.0000
11:59 25.8 15.8 54 171 0.8 2.8 1013.2 0.0000 0.0000
12:09 25.9 16.2 55 172 0.6 1.9 1013.1 0.0000 0.0000
12:19 25.9 16.2 55 163 1.1 2.5 1013.1 0.0000 0.0000
12:30 25.8 16.4 56 160 0.8 2.2 1013 0.0000 0.0000
12:39 25.5 16.6 58 166 0.8 2.5 1013.1 0.0000 0.0000
12:49 25.2 16.6 59 162 1.1 2.8 1013.1 0.0000 0.0000
13:00 25 17.2 62 194 0.6 1.9 1013 0.0000 0.0000
13:10 25.4 16.5 58 188 0.3 1.7 1013.1 0.0000 0.0000
13:20 25.5 16.4 57 173 0.6 2.2 1013 0.0000 0.0000
13:30 25.8 16.9 58 174 0.8 2.8 1013.1 0.0000 0.0000
13:40 26 17.4 59 188 0.6 1.7 1013 0.0000 0.0000
13:50 26.6 17.7 58 198 0.3 1.7 1013 0.0000 0.0000
14:00 26.9 17.7 57 172 0.8 3.1 1013 0.0000 0.0000
14:11 27.3 18 57 183 0.6 2.2 1013 0.0000 0.0000
14:20 27.7 18.1 56 173 0.8 1.9 1012.9 0.0000 0.0000
14:30 28.2 18.3 55 170 0.8 1.9 1012.8 0.0000 0.0000
14:40 28.8 18.6 54 167 0.8 1.7 1012.8 0.0000 0.0000
14:51 29.5 17.7 49 185 0.6 2.8 1012.8 0.0000 0.0000
15:01 29.7 17.5 48 181 0.6 2.8 1012.7 0.0000 0.0000
15:10 30.1 17.2 46 181 0.6 1.4 1012.6 0.0000 0.0000
15:21 30.8 16.8 43 185 0.6 3.1 1012.5 0.0000 0.0000
15:31 31.3 16.1 40 174 0.6 1.9 1012.4 0.0000 0.0000
15:41 31.1 15.1 38 178 0.8 1.9 1012.4 0.0000 0.0000
15:51 31.6 15.6 38 198 0.3 1.4 1012.3 0.0000 0.0000
16:01 32.2 15.2 36 185 0.6 1.9 1012.2 0.0000 0.0000
16:11 31.9 15.4 37 181 0.6 2.2 1012.1 0.0000 0.0000
16:21 32.7 15.7 36 194 0.6 1.9 1012.1 0.0000 0.0000
16:32 32.4 15.8 37 195 0.6 1.7 1012.2 0.0000 0.0000
16:42 32.4 15.8 37 191 0.6 1.4 1012.2 0.0000 0.0000
16:51 31.3 16.9 42 183 0.6 1.4 1012.1 0.0000 0.0000
17:01 29.8 16.9 46 171 0.6 1.9 1011.9 0.0000 0.0000
17:12 30 15.7 42 177 0.6 1.4 1011.8 0.0000 0.0000
17:22 30 16.4 44 174 0.6 2.2 1011.8 0.0000 0.0000
17:32 29.6 16.4 45 177 0.6 1.4 1011.9 0.0000 0.0000
17:42 29.1 17.3 49 172 0.6 1.9 1012 0.0000 0.0000
17:52 28.5 17.7 52 216 0.3 0.8 1012 0.0000 0.0000
18:02 28.2 16.8 50 239 0.3 0.6 1012.1 0.0000 0.0000
18:12 28.4 17 50 0 0.3 1.1 1012.1 0.0000 0.0000
18:23 28.3 16.2 48 0 0.6 1012.1 0.0000 0.0000
18:32 28.3 16.6 49 150 0.3 0.8 1012.2 0.0000 0.0000
18:42 28.2 16.8 50 150 0.3 0.8 1012.3 0.0000 0.0000
18:53 28.5 16.8 49 142 0.3 0.8 1012.3 0.0000 0.0000
19:03 28.4 16.7 49 0 0.6 1012.5 0.0000 0.0000
19:13 28.3 16.6 49 0 0.6 1012.5 0.0000 0.0000
19:22 28.1 16.4 49 0 0.6 1012.4 0.0000 0.0000
19:33 27.9 15.6 47 0 0.6 1012.5 0.0000 0.0000
19:43 27.5 14.9 46 0.3 1.1 1012.6 0.0000 0.0000
19:53 26.8 14.6 47 153 0.3 0.8 1012.7 0.0000 0.0000
20:03 26.3 14.1 47 135 0.3 0.8 1012.7 0.0000 0.0000
20:13 25.7 14.2 49 153 0.3 0.6 1012.7 0.0000 0.0000
20:23 25.4 14.2 50 315 0.3 0.8 1012.7 0.0000 0.0000
20:33 25.1 14 50 161 0.3 0.8 1012.8 0.0000 0.0000
20:44 24.9 14.1 51 315 0.3 0.8 1012.9 0.0000 0.0000
20:54 25.1 14.6 52 135 0.3 0.8 1013.1 0.0000 0.0000
21:03 25.2 14.4 51 323 0.3 1.1 1013.1 0.0000 0.0000
21:14 25.2 14.7 52 135 0.3 0.8 1013.1 0.0000 0.0000
21:24 25.4 15.1 53 45 0.3 0.8 1013 0.0000 0.0000
21:34 25.4 14.8 52 329 0.3 0.6 1012.8 0.0000 0.0000
21:44 25 14.5 52 341 0.3 0.8 1012.8 0.0000 0.0000
21:54 24.7 14.5 53 0 0.8 1012.7 0.0000 0.0000
22:04 24.4 14.2 53 336 0.3 0.8 1012.7 0.0000 0.0000
22:14 24.1 14.2 54 328 0.3 1.1 1012.7 0.0000 0.0000
22:24 23.8 14.2 55 341 0.3 0.8 1012.7 0.0000 0.0000
22:35 23.7 14.4 56 0 0.6 1012.7 0.0000 0.0000
22:44 23.5 14.2 56 329 0.6 1.4 1012.6 0.0000 0.0000
22:54 23.3 14.3 57 329 0.6 1.1 1012.5 0.0000 0.0000
23:05 23.1 14.1 57 334 0.3 1.1 1012.4 0.0000 0.0000
23:15 22.9 14.2 58 329 0.6 1.4 1012.4 0.0000 0.0000
23:25 22.7 14 58 327 0.3 1.1 1012.5 0.0000 0.0000
23:34 22.6 13.9 58 330 0.3 1.1 1012.5 0.0000 0.0000
23:45 22.6 13.9 58 337 0.3 1.1 1012.5 0.0000 0.0000
23:55 22.5 14.1 59 323 0.6 1.1 1012.5 0.0000

TAGESSTATISTIK

2022-08-16
TEMPERATUR
MITTEL
24.8
MAXIMUM
32.7
16:21
MINIMUM
20.7
06:47
LUFTDRUCK
MITTEL
1012.3
MAXIMUM
1013.3
11:49
MINIMUM
1011.0
02:44
TAUPUNKT
MITTEL
14.7
MAXIMUM
18.6
14:40
MINIMUM
12.5
03:15
FEUCHTIGKEIT
MITTEL
54
MAXIMUM
62
07:57
MINIMUM
36
16:01
WINDSTÄRKE
MITTEL
0.4
MAXIMUM
1.1
11:29
WINDBÖE
MITTEL
1.2
MAXIMUM
3.1
00:04
WINDRICHTUNG
VORHERRSCHENDE
S
31.7%
N
4.2
NO
0.7
O
0.0
SO
5.6
S
31.7
SW
3.5
W
3.5
NW
27.5
NIEDERSCHLAG
REGEN STUNDE
0.0
REGEN TAG
0.0
TEMPERATUR (°C)
MINIMUM
20.7
MAXIMUM
32.7
MITTEL
24.8
LUFTDRUCK (hpa)
MINIMUM
1011.0
MAXIMUM
1013.3
MITTEL
1012.3
MESSGERÄT